Time;durP1;ratioP1;P1;durP2;ratioP2;P2;SDS_P1;SDS_P2;PMS_P1;PMS_P2;Temp;Humidity;BMP_temperature;BMP_pressure;BME280_temperature;BME280_humidity;BME280_pressure;Samples;Min_cycle;Max_cycle;Signal;HPM_P1;HPM_P2
2023/12/29 00:00:27;;;;;;;11.38;2.60;;;10.20;99.90;;;;;;5008367;28;20049;-71
2023/12/29 00:02:53;;;;;;;12.05;2.55;;;10.30;99.90;;;;;;4988683;28;20049;-71
2023/12/29 00:05:19;;;;;;;11.82;2.70;;;10.20;99.90;;;;;;5032156;28;20118;-71
2023/12/29 00:07:44;;;;;;;12.02;2.80;;;10.20;99.90;;;;;;4986106;28;20088;-71
2023/12/29 00:10:10;;;;;;;10.75;3.10;;;10.30;99.90;;;;;;4991249;28;20516;-71
2023/12/29 00:12:36;;;;;;;10.18;2.60;;;10.20;99.90;;;;;;4998357;28;20038;-71
2023/12/29 00:15:02;;;;;;;11.05;2.80;;;10.30;99.90;;;;;;4999155;28;20136;-71
2023/12/29 00:17:28;;;;;;;10.35;2.70;;;10.30;99.90;;;;;;4995901;28;20082;-71
2023/12/29 00:19:54;;;;;;;8.80;2.63;;;10.30;99.90;;;;;;5002006;28;20935;-71
2023/12/29 00:22:21;;;;;;;10.95;2.42;;;10.30;99.90;;;;;;4988149;28;20562;-71
2023/12/29 00:24:46;;;;;;;12.50;2.90;;;10.30;99.90;;;;;;5002961;28;20341;-71
2023/12/29 00:27:13;;;;;;;10.93;2.95;;;10.30;99.90;;;;;;4985582;28;20042;-71
2023/12/29 00:29:39;;;;;;;10.27;3.53;;;10.20;99.90;;;;;;5014997;28;20046;-71
2023/12/29 00:32:05;;;;;;;13.80;2.85;;;10.20;99.90;;;;;;5001776;28;20046;-71
2023/12/29 00:34:31;;;;;;;11.85;3.03;;;10.30;99.90;;;;;;4989068;28;20081;-71
2023/12/29 00:36:57;;;;;;;12.07;3.25;;;10.20;99.90;;;;;;4980825;28;20086;-71
2023/12/29 00:39:30;;;;;;;8.93;2.22;;;10.20;99.90;;;;;;5004455;28;20128;-71
2023/12/29 00:41:57;;;;;;;9.18;2.45;;;10.30;99.90;;;;;;4998771;28;20452;-71
2023/12/29 00:44:23;;;;;;;10.35;2.80;;;10.20;99.90;;;;;;4988003;28;20040;-71
2023/12/29 00:46:49;;;;;;;11.75;2.97;;;10.20;99.90;;;;;;5013355;28;20065;-71
2023/12/29 00:49:15;;;;;;;11.32;3.08;;;10.20;99.90;;;;;;5000729;28;20078;-71
2023/12/29 00:51:41;;;;;;;12.65;2.33;;;10.20;99.90;;;;;;4993303;28;20120;-71
2023/12/29 00:54:07;;;;;;;10.68;2.65;;;10.20;99.90;;;;;;5006492;28;20041;-71
2023/12/29 00:56:33;;;;;;;11.93;2.33;;;10.20;99.90;;;;;;5001246;28;20036;-71
2023/12/29 00:58:59;;;;;;;11.32;2.95;;;10.00;99.90;;;;;;4986956;28;20034;-71
2023/12/29 01:01:25;;;;;;;11.35;2.50;;;10.00;99.90;;;;;;5006002;28;20041;-71
2023/12/29 01:03:54;;;;;;;9.50;3.28;;;9.80;99.90;;;;;;4983454;28;20042;-71
2023/12/29 01:06:20;;;;;;;11.57;3.30;;;9.80;99.90;;;;;;5010873;28;20052;-71
2023/12/29 01:08:46;;;;;;;14.52;2.70;;;9.80;99.90;;;;;;5002297;28;20487;-71
2023/12/29 01:11:11;;;;;;;7.65;2.47;;;9.80;99.90;;;;;;5000933;28;20516;-71
2023/12/29 01:13:37;;;;;;;11.20;2.60;;;9.90;99.90;;;;;;4997264;28;20409;-71
2023/12/29 01:16:03;;;;;;;11.45;2.78;;;9.90;99.90;;;;;;5000670;28;20046;-71
2023/12/29 01:18:29;;;;;;;13.50;2.90;;;9.80;99.90;;;;;;4996512;28;20116;-71
2023/12/29 01:20:55;;;;;;;17.25;3.38;;;9.70;99.90;;;;;;4987344;28;20679;-71
2023/12/29 01:23:20;;;;;;;15.73;3.60;;;9.60;99.90;;;;;;4987084;28;20103;-71
2023/12/29 01:25:46;;;;;;;12.55;3.45;;;9.60;99.90;;;;;;4989987;28;20520;-71
2023/12/29 01:28:12;;;;;;;13.98;3.33;;;9.60;99.90;;;;;;5001392;28;20125;-71
2023/12/29 01:30:38;;;;;;;19.75;4.30;;;9.70;99.90;;;;;;4995362;28;20084;-71
2023/12/29 01:33:04;;;;;;;13.15;3.63;;;9.70;99.90;;;;;;5002851;28;20060;-71
2023/12/29 01:35:29;;;;;;;16.92;3.50;;;9.80;99.90;;;;;;5033250;28;20111;-71
2023/12/29 01:37:56;;;;;;;14.43;3.88;;;9.70;99.90;;;;;;5030714;28;20042;-71
2023/12/29 01:40:22;;;;;;;10.45;3.40;;;9.70;99.90;;;;;;5003414;28;20203;-71
2023/12/29 01:42:48;;;;;;;13.93;3.65;;;9.60;99.90;;;;;;5023521;28;20048;-71
2023/12/29 01:45:22;;;;;;;15.65;3.83;;;9.70;99.90;;;;;;5003330;28;20049;-71
2023/12/29 01:47:49;;;;;;;7.78;2.20;;;9.60;99.90;;;;;;4986458;28;20038;-71
2023/12/29 01:50:16;;;;;;;3.90;1.23;;;9.20;99.90;;;;;;5020133;28;20053;-71
2023/12/29 01:52:43;;;;;;;4.43;1.40;;;9.10;99.90;;;;;;5004122;28;20665;-71
2023/12/29 01:55:14;;;;;;;10.68;2.90;;;9.00;99.90;;;;;;4985594;28;20056;-70
2023/12/29 01:57:41;;;;;;;12.93;2.97;;;9.10;99.90;;;;;;5001088;28;20050;-70
2023/12/29 02:00:08;;;;;;;7.03;1.65;;;9.00;99.90;;;;;;5001629;28;20110;-70
2023/12/29 02:02:33;;;;;;;4.10;1.73;;;8.80;99.90;;;;;;5004640;28;20052;-69
2023/12/29 02:05:00;;;;;;;4.25;1.40;;;8.40;99.90;;;;;;4994681;28;20054;-69
2023/12/29 02:07:30;;;;;;;4.10;0.80;;;7.50;99.90;;;;;;4998121;28;20095;-70
2023/12/29 02:09:59;;;;;;;7.47;1.55;;;7.00;99.90;;;;;;4984718;28;20523;-69
2023/12/29 02:12:25;;;;;;;4.38;1.50;;;6.50;99.90;;;;;;4995952;28;20080;-69
2023/12/29 02:14:51;;;;;;;6.05;1.40;;;6.50;99.90;;;;;;4987765;28;20045;-69
2023/12/29 02:17:22;;;;;;;7.32;1.63;;;6.40;99.90;;;;;;5001460;28;20078;-69
2023/12/29 02:19:49;;;;;;;9.57;2.05;;;6.40;99.90;;;;;;5003927;28;20284;-69
2023/12/29 02:22:15;;;;;;;7.82;2.13;;;6.40;99.90;;;;;;5000234;28;20077;-69
2023/12/29 02:24:51;;;;;;;9.52;2.00;;;6.40;99.90;;;;;;4994047;28;20076;-69
2023/12/29 02:27:47;;;;;;;7.80;2.10;;;6.50;99.90;;;;;;4989734;28;20141;-69
2023/12/29 02:30:38;;;;;;;7.40;2.40;;;6.70;99.90;;;;;;4994822;28;20053;-70
2023/12/29 02:33:13;;;;;;;12.38;2.50;;;6.80;99.90;;;;;;5003351;28;20568;-70
2023/12/29 02:35:42;;;;;;;11.07;2.70;;;6.80;99.90;;;;;;5012350;28;20121;-69
2023/12/29 02:38:09;;;;;;;8.43;2.45;;;7.00;99.90;;;;;;4989690;28;20438;-69
2023/12/29 02:40:35;;;;;;;8.40;2.65;;;7.10;99.90;;;;;;4991742;28;20041;-69
2023/12/29 02:43:01;;;;;;;10.45;2.50;;;7.30;99.90;;;;;;4986040;28;20046;-69
2023/12/29 02:45:27;;;;;;;17.42;3.42;;;7.40;99.90;;;;;;4999925;28;20042;-69
2023/12/29 02:47:53;;;;;;;17.38;3.17;;;7.60;99.90;;;;;;4993691;28;20050;-70
2023/12/29 02:50:19;;;;;;;11.15;3.17;;;7.70;99.90;;;;;;4988576;28;20073;-70
2023/12/29 02:52:44;;;;;;;16.48;3.30;;;7.70;99.90;;;;;;4995888;28;20047;-70
2023/12/29 02:55:10;;;;;;;19.55;4.10;;;7.70;99.90;;;;;;5006263;28;20049;-70
2023/12/29 02:57:36;;;;;;;14.20;3.63;;;7.90;99.90;;;;;;4986923;28;20547;-70
2023/12/29 03:00:03;;;;;;;15.43;3.92;;;8.10;99.90;;;;;;4987521;28;20037;-70
2023/12/29 03:02:29;;;;;;;16.30;4.20;;;8.10;99.90;;;;;;4999348;28;20045;-70
2023/12/29 03:04:55;;;;;;;18.33;3.92;;;8.30;99.90;;;;;;4999855;28;20046;-70
2023/12/29 03:07:21;;;;;;;16.90;4.57;;;8.20;99.90;;;;;;4990816;28;20412;-70
2023/12/29 03:09:47;;;;;;;16.48;4.20;;;8.60;99.90;;;;;;4990352;28;20373;-70
2023/12/29 03:12:13;;;;;;;22.58;4.95;;;8.90;99.90;;;;;;5010234;28;20046;-70
2023/12/29 03:14:38;;;;;;;20.27;4.40;;;9.00;99.90;;;;;;4997589;28;20053;-70
2023/12/29 03:17:04;;;;;;;23.05;5.50;;;9.00;99.90;;;;;;4996944;28;20471;-70
2023/12/29 03:19:30;;;;;;;15.50;4.00;;;9.10;99.90;;;;;;5002884;28;20271;-70
2023/12/29 03:21:56;;;;;;;20.83;4.50;;;9.10;99.90;;;;;;4996159;28;20061;-70
2023/12/29 03:24:21;;;;;;;16.02;4.10;;;9.10;99.90;;;;;;5026838;28;20093;-70
2023/12/29 03:26:47;;;;;;;19.17;3.75;;;9.20;99.90;;;;;;4990447;28;20065;-70
2023/12/29 03:29:13;;;;;;;22.27;4.78;;;9.20;99.90;;;;;;4999811;28;20546;-70
2023/12/29 03:31:41;;;;;;;15.80;3.88;;;9.10;99.90;;;;;;4996748;28;20101;-70
2023/12/29 03:34:07;;;;;;;17.27;3.40;;;9.30;99.90;;;;;;5010754;28;20054;-70
2023/12/29 03:36:33;;;;;;;19.23;4.43;;;9.30;99.90;;;;;;4998414;28;20586;-70
2023/12/29 03:38:59;;;;;;;24.92;5.13;;;9.30;99.90;;;;;;5027081;28;20046;-71
2023/12/29 03:41:25;;;;;;;21.77;4.35;;;9.30;99.90;;;;;;5032109;28;20034;-70
2023/12/29 03:43:51;;;;;;;23.95;4.63;;;9.50;99.90;;;;;;4992773;28;20519;-70
2023/12/29 03:46:17;;;;;;;21.25;4.07;;;9.50;99.90;;;;;;4985779;28;20083;-70
2023/12/29 03:48:43;;;;;;;15.82;3.35;;;9.40;99.90;;;;;;5003431;28;20045;-70
2023/12/29 03:51:09;;;;;;;19.42;4.13;;;9.50;99.90;;;;;;5011750;28;20049;-70
2023/12/29 03:53:35;;;;;;;19.63;3.80;;;9.50;99.90;;;;;;4998461;28;20444;-71
2023/12/29 03:56:08;;;;;;;16.60;3.88;;;9.40;99.90;;;;;;5033980;28;20427;-70
2023/12/29 03:58:35;;;;;;;19.23;4.32;;;9.40;99.90;;;;;;4986166;28;20046;-70
2023/12/29 04:01:01;;;;;;;22.65;3.95;;;9.30;99.90;;;;;;5001041;28;20159;-71
2023/12/29 04:03:27;;;;;;;22.38;4.03;;;9.30;99.90;;;;;;5003055;28;20389;-71
2023/12/29 04:05:53;;;;;;;21.65;4.05;;;9.40;99.90;;;;;;5017269;28;20042;-70
2023/12/29 04:08:18;;;;;;;28.38;5.22;;;9.30;99.90;;;;;;4978574;28;20042;-70
2023/12/29 04:10:44;;;;;;;20.98;4.70;;;9.40;99.90;;;;;;4999301;28;20069;-70
2023/12/29 04:13:10;;;;;;;22.40;3.83;;;9.40;99.90;;;;;;4983958;28;20504;-71
2023/12/29 04:15:36;;;;;;;20.58;3.95;;;9.40;99.90;;;;;;5004195;28;20049;-71
2023/12/29 04:18:01;;;;;;;18.92;4.15;;;9.40;99.90;;;;;;4996824;28;20042;-70
2023/12/29 04:20:27;;;;;;;18.17;3.75;;;9.50;99.90;;;;;;5002572;28;20120;-70
2023/12/29 04:22:53;;;;;;;24.67;5.55;;;9.50;99.90;;;;;;5002660;28;20054;-70
2023/12/29 04:25:19;;;;;;;22.20;4.82;;;9.50;99.90;;;;;;4989941;28;20091;-71
2023/12/29 04:27:45;;;;;;;20.00;3.75;;;9.40;99.90;;;;;;4984929;28;20042;-71
2023/12/29 04:30:10;;;;;;;23.92;4.43;;;9.50;99.90;;;;;;4987122;28;20045;-71
2023/12/29 04:32:36;;;;;;;25.10;4.18;;;9.50;99.90;;;;;;5000252;28;20046;-71
2023/12/29 04:35:02;;;;;;;23.23;4.47;;;9.50;99.90;;;;;;4980255;28;20042;-71
2023/12/29 04:37:28;;;;;;;21.65;4.63;;;9.60;99.90;;;;;;4985364;28;20193;-70
2023/12/29 04:39:54;;;;;;;17.67;3.60;;;9.60;99.90;;;;;;4997460;28;20541;-71
2023/12/29 04:42:19;;;;;;;17.52;3.97;;;9.60;99.90;;;;;;4984957;28;20065;-70
2023/12/29 04:44:45;;;;;;;25.10;3.83;;;9.50;99.90;;;;;;4987727;28;20041;-71
2023/12/29 04:47:11;;;;;;;20.83;3.50;;;9.60;99.90;;;;;;4993672;28;20113;-71
2023/12/29 04:49:38;;;;;;;21.20;3.95;;;9.50;99.90;;;;;;5004804;28;20057;-71
2023/12/29 04:52:04;;;;;;;22.65;4.60;;;9.50;99.90;;;;;;4997966;28;20122;-70
2023/12/29 04:54:30;;;;;;;24.35;4.53;;;9.40;99.90;;;;;;4987135;28;20418;-71
2023/12/29 04:56:56;;;;;;;21.52;4.78;;;9.50;99.90;;;;;;5005536;28;20046;-71
2023/12/29 04:59:22;;;;;;;20.83;4.18;;;9.50;99.90;;;;;;5001960;28;20038;-71
2023/12/29 05:01:48;;;;;;;22.20;4.63;;;9.50;99.90;;;;;;4996869;28;20093;-70
2023/12/29 05:04:14;;;;;;;21.70;4.68;;;9.50;99.90;;;;;;5003131;28;20050;-70
2023/12/29 05:06:40;;;;;;;23.98;4.30;;;9.50;99.90;;;;;;4991911;28;20087;-71
2023/12/29 05:09:06;;;;;;;26.92;4.28;;;9.60;99.90;;;;;;5001568;28;20053;-71
2023/12/29 05:11:32;;;;;;;20.48;4.28;;;9.60;99.90;;;;;;5002270;28;20511;-71
2023/12/29 05:13:58;;;;;;;21.92;4.30;;;9.60;99.90;;;;;;4994294;28;20560;-71
2023/12/29 05:16:24;;;;;;;32.50;5.20;;;9.60;99.90;;;;;;4998700;28;20412;-71
2023/12/29 05:18:49;;;;;;;20.52;4.28;;;9.60;99.90;;;;;;5008089;28;20046;-71
2023/12/29 05:21:19;;;;;;;23.92;4.88;;;9.70;99.90;;;;;;5000388;28;20385;-71
2023/12/29 05:23:46;;;;;;;25.80;4.28;;;9.70;99.90;;;;;;4998247;28;20140;-70
2023/12/29 05:26:12;;;;;;;19.27;4.40;;;9.70;99.90;;;;;;4991835;28;20076;-70
2023/12/29 05:28:37;;;;;;;23.45;4.57;;;9.70;99.90;;;;;;5027354;28;21351;-71
2023/12/29 05:31:03;;;;;;;21.10;3.47;;;9.70;99.90;;;;;;5000703;28;20054;-71
2023/12/29 05:33:33;;;;;;;22.25;4.30;;;9.70;99.90;;;;;;5000426;28;20053;-71
2023/12/29 05:36:05;;;;;;;28.48;4.70;;;9.70;99.90;;;;;;4986506;28;20054;-71
2023/12/29 05:38:31;;;;;;;24.02;3.80;;;9.60;99.90;;;;;;4995067;28;20081;-71
2023/12/29 05:40:57;;;;;;;22.20;3.95;;;9.60;99.90;;;;;;4990268;28;20080;-71
2023/12/29 05:43:23;;;;;;;27.58;4.35;;;9.70;99.90;;;;;;5036698;28;20068;-71
2023/12/29 05:45:48;;;;;;;23.30;3.72;;;9.70;99.90;;;;;;5011563;28;20124;-71
2023/12/29 05:48:14;;;;;;;22.00;3.88;;;9.70;99.90;;;;;;4999265;28;20045;-71
2023/12/29 05:50:40;;;;;;;27.15;4.72;;;9.70;99.90;;;;;;5004348;28;20052;-71
2023/12/29 05:53:06;;;;;;;23.92;4.47;;;9.60;99.90;;;;;;4999749;28;20084;-71
2023/12/29 05:55:32;;;;;;;22.75;4.53;;;9.70;99.90;;;;;;4994846;28;20049;-71
2023/12/29 05:57:58;;;;;;;22.23;3.90;;;9.70;99.90;;;;;;5001007;28;20041;-71
2023/12/29 06:00:24;;;;;;;15.55;3.45;;;9.70;99.90;;;;;;5026366;28;20559;-71
2023/12/29 06:02:49;;;;;;;18.40;3.97;;;9.80;99.90;;;;;;4985182;28;20042;-71
2023/12/29 06:05:15;;;;;;;15.05;3.42;;;9.70;99.90;;;;;;4995913;28;20121;-71
2023/12/29 06:07:41;;;;;;;20.17;3.83;;;9.80;99.90;;;;;;4997157;28;20079;-71
2023/12/29 06:10:08;;;;;;;19.83;4.38;;;9.80;99.90;;;;;;4984664;28;20416;-71
2023/12/29 06:12:34;;;;;;;15.35;3.47;;;9.80;99.90;;;;;;4997689;28;20400;-71
2023/12/29 06:15:00;;;;;;;16.08;3.75;;;9.70;99.90;;;;;;4994529;28;20493;-71
2023/12/29 06:17:26;;;;;;;14.75;3.95;;;9.70;99.90;;;;;;4999437;28;20046;-71
2023/12/29 06:19:52;;;;;;;19.70;3.25;;;9.70;99.90;;;;;;5000407;28;20545;-71
2023/12/29 06:22:18;;;;;;;12.63;3.30;;;9.70;99.90;;;;;;4999353;28;20158;-71
2023/12/29 06:24:44;;;;;;;16.23;3.60;;;9.70;99.90;;;;;;5037949;28;20392;-71
2023/12/29 06:27:11;;;;;;;15.80;3.72;;;9.70;99.90;;;;;;4992871;28;20046;-71
2023/12/29 06:29:37;;;;;;;20.20;4.03;;;9.70;99.90;;;;;;4987993;28;20444;-71
2023/12/29 06:32:03;;;;;;;19.83;3.22;;;9.60;99.90;;;;;;5014062;28;20038;-71
2023/12/29 06:34:29;;;;;;;21.80;3.45;;;9.60;99.90;;;;;;5002115;28;20057;-71
2023/12/29 06:36:55;;;;;;;18.00;3.25;;;9.50;99.90;;;;;;4999110;28;20392;-71
2023/12/29 06:39:21;;;;;;;20.95;3.50;;;9.40;99.90;;;;;;5008380;28;20047;-71
2023/12/29 06:41:46;;;;;;;20.95;3.92;;;9.30;99.90;;;;;;5002467;28;20617;-71
2023/12/29 06:44:12;;;;;;;22.17;3.97;;;9.30;99.90;;;;;;4979680;28;20104;-71
2023/12/29 06:46:38;;;;;;;21.73;4.00;;;9.20;99.90;;;;;;4995114;28;20174;-71
2023/12/29 06:49:04;;;;;;;19.92;4.50;;;9.20;99.90;;;;;;4994456;28;20512;-70
2023/12/29 06:51:30;;;;;;;23.27;4.50;;;9.20;99.90;;;;;;4995933;28;20050;-70
2023/12/29 06:53:56;;;;;;;25.02;4.35;;;9.20;99.90;;;;;;4989407;28;20619;-71
2023/12/29 06:56:22;;;;;;;18.80;4.57;;;9.20;99.90;;;;;;4982764;28;20046;-71
2023/12/29 06:58:48;;;;;;;21.85;4.38;;;9.20;99.90;;;;;;5002569;28;20104;-71
2023/12/29 07:01:15;;;;;;;26.17;4.35;;;9.20;99.90;;;;;;5025724;28;20528;-70
2023/12/29 07:03:41;;;;;;;22.38;4.00;;;9.30;99.90;;;;;;5003540;28;20046;-71
2023/12/29 07:06:07;;;;;;;24.45;4.50;;;9.30;99.90;;;;;;5015885;28;20046;-71
2023/12/29 07:08:33;;;;;;;21.92;4.47;;;9.40;99.90;;;;;;4984606;28;20088;-71
2023/12/29 07:10:58;;;;;;;21.73;4.25;;;9.30;99.90;;;;;;5002261;28;20052;-70
2023/12/29 07:13:24;;;;;;;23.00;5.13;;;9.40;99.90;;;;;;5007019;28;20403;-71
2023/12/29 07:15:50;;;;;;;23.13;4.28;;;9.40;99.90;;;;;;5000890;28;20095;-71
2023/12/29 07:18:16;;;;;;;22.33;4.38;;;9.40;99.90;;;;;;4989916;28;20404;-71
2023/12/29 07:20:42;;;;;;;27.13;4.93;;;9.40;99.90;;;;;;5004547;28;20038;-71
2023/12/29 07:23:08;;;;;;;23.52;4.75;;;9.30;99.90;;;;;;4990048;28;20381;-71
2023/12/29 07:25:34;;;;;;;22.05;5.15;;;9.40;99.90;;;;;;5000366;28;20069;-71
2023/12/29 07:28:00;;;;;;;24.85;4.38;;;9.30;99.90;;;;;;5002630;28;20164;-71
2023/12/29 07:30:26;;;;;;;24.75;5.20;;;9.40;99.90;;;;;;5003758;28;20129;-71
2023/12/29 07:32:52;;;;;;;27.45;4.90;;;9.40;99.90;;;;;;4990367;28;20129;-71
2023/12/29 07:35:19;;;;;;;20.13;4.80;;;9.40;99.90;;;;;;5001142;28;20049;-71
2023/12/29 07:37:46;;;;;;;23.48;4.65;;;9.30;99.90;;;;;;4997475;28;20053;-71
2023/12/29 07:40:13;;;;;;;18.70;4.63;;;9.30;99.90;;;;;;4999399;28;20042;-71
2023/12/29 07:42:46;;;;;;;26.38;5.32;;;9.30;99.90;;;;;;4987853;28;20042;-71
2023/12/29 07:45:12;;;;;;;22.95;4.72;;;9.30;99.90;;;;;;4995175;28;20133;-71
2023/12/29 07:47:38;;;;;;;27.92;4.50;;;9.30;99.90;;;;;;5000188;28;20555;-71
2023/12/29 07:50:05;;;;;;;21.75;3.95;;;9.30;99.90;;;;;;4988892;28;20056;-71
2023/12/29 07:52:31;;;;;;;22.88;5.03;;;9.40;99.90;;;;;;5005973;28;20531;-71
2023/12/29 07:54:57;;;;;;;28.20;4.50;;;9.50;99.90;;;;;;4987902;28;20145;-71
2023/12/29 07:57:22;;;;;;;26.15;4.82;;;9.50;99.90;;;;;;4996286;28;20125;-71
2023/12/29 07:59:48;;;;;;;24.13;4.43;;;9.50;99.90;;;;;;4999860;28;20061;-71
2023/12/29 08:02:14;;;;;;;19.45;3.88;;;9.50;99.90;;;;;;4990933;28;20040;-71
2023/12/29 08:04:40;;;;;;;28.15;5.00;;;9.60;99.90;;;;;;5007382;28;20049;-71
2023/12/29 08:07:05;;;;;;;21.10;5.20;;;9.50;99.90;;;;;;5027342;28;20061;-71
2023/12/29 08:09:32;;;;;;;19.02;4.07;;;9.60;99.90;;;;;;5016871;28;20038;-71
2023/12/29 08:11:57;;;;;;;23.63;4.47;;;9.60;99.90;;;;;;5006857;28;20133;-71
2023/12/29 08:14:23;;;;;;;25.20;4.70;;;9.60;99.90;;;;;;5000427;28;20129;-71
2023/12/29 08:16:49;;;;;;;27.05;4.32;;;9.60;99.90;;;;;;4992392;28;20043;-71
2023/12/29 08:19:16;;;;;;;21.25;3.85;;;9.70;99.90;;;;;;4986902;28;20520;-71
2023/12/29 08:21:41;;;;;;;20.05;4.32;;;9.70;99.90;;;;;;5001921;28;20112;-71
2023/12/29 08:24:10;;;;;;;21.10;3.85;;;9.60;99.90;;;;;;4990283;28;20045;-71
2023/12/29 08:26:48;;;;;;;30.40;4.65;;;9.70;99.90;;;;;;5004059;28;20038;-71
2023/12/29 08:29:15;;;;;;;22.10;4.85;;;9.70;99.90;;;;;;4984517;28;20044;-71
2023/12/29 08:31:42;;;;;;;25.40;5.30;;;9.60;99.90;;;;;;5027020;28;20045;-71
2023/12/29 08:34:08;;;;;;;22.27;4.60;;;9.60;99.90;;;;;;4997361;28;20104;-71
2023/12/29 08:36:33;;;;;;;19.15;4.30;;;9.50;99.90;;;;;;4998164;28;20512;-71
2023/12/29 08:38:59;;;;;;;22.65;4.05;;;9.60;99.90;;;;;;4986509;28;20445;-71
2023/12/29 08:41:25;;;;;;;22.50;3.97;;;9.50;99.90;;;;;;4987532;28;20489;-71
2023/12/29 08:43:51;;;;;;;25.40;4.25;;;9.60;99.90;;;;;;4997936;28;20136;-71
2023/12/29 08:46:16;;;;;;;18.60;4.35;;;9.50;99.90;;;;;;5014056;28;20046;-70
2023/12/29 08:48:42;;;;;;;29.60;4.00;;;9.50;99.90;;;;;;4989663;28;20045;-71
2023/12/29 08:51:08;;;;;;;23.00;4.25;;;9.50;99.90;;;;;;4992980;28;20042;-71
2023/12/29 08:53:35;;;;;;;22.73;4.10;;;9.50;99.90;;;;;;5002937;28;20054;-71
2023/12/29 08:56:04;;;;;;;24.00;4.32;;;9.50;99.90;;;;;;4998787;28;20073;-71
2023/12/29 08:58:31;;;;;;;19.80;3.90;;;9.60;99.90;;;;;;4985554;28;20041;-71
2023/12/29 09:00:56;;;;;;;19.45;4.28;;;9.60;99.90;;;;;;4999272;28;20116;-71
2023/12/29 09:03:22;;;;;;;23.13;4.10;;;9.60;99.90;;;;;;4998449;28;20046;-71
2023/12/29 09:05:48;;;;;;;23.50;4.72;;;9.70;99.90;;;;;;4999331;28;20049;-71
2023/12/29 09:08:13;;;;;;;23.42;3.72;;;9.70;99.90;;;;;;5030330;28;20042;-71
2023/12/29 09:10:39;;;;;;;24.08;4.78;;;9.60;99.90;;;;;;5015149;28;20420;-71
2023/12/29 09:13:05;;;;;;;17.90;4.32;;;9.70;99.90;;;;;;4996109;28;20330;-71
2023/12/29 09:15:31;;;;;;;27.35;4.40;;;9.70;99.90;;;;;;4996499;28;20169;-71
2023/12/29 09:17:57;;;;;;;26.85;4.18;;;9.70;99.90;;;;;;4999287;28;20038;-71
2023/12/29 09:20:23;;;;;;;27.15;4.05;;;9.70;99.90;;;;;;5004994;28;20385;-71
2023/12/29 09:22:48;;;;;;;16.52;4.47;;;9.70;99.90;;;;;;4999703;28;20052;-71
2023/12/29 09:25:15;;;;;;;23.33;4.57;;;9.80;99.90;;;;;;5012443;28;20049;-71
2023/12/29 09:27:40;;;;;;;28.60;4.30;;;9.80;99.90;;;;;;5021972;28;20042;-71
2023/12/29 09:30:07;;;;;;;24.50;4.40;;;9.90;99.90;;;;;;5013860;28;20041;-71
2023/12/29 09:32:32;;;;;;;21.30;4.60;;;9.80;99.90;;;;;;4985826;28;20081;-71
2023/12/29 09:34:58;;;;;;;20.73;3.78;;;9.80;99.90;;;;;;4999310;28;20087;-71
2023/12/29 09:37:24;;;;;;;24.35;4.43;;;9.80;99.90;;;;;;4995882;28;20528;-71
2023/12/29 09:39:53;;;;;;;25.48;4.50;;;9.70;99.90;;;;;;5009884;28;20054;-71
2023/12/29 09:42:25;;;;;;;25.52;4.43;;;9.70;99.90;;;;;;4996689;28;20041;-71
2023/12/29 09:44:51;;;;;;;25.55;4.28;;;9.80;99.90;;;;;;5000116;28;20053;-71
2023/12/29 09:47:25;;;;;;;24.25;4.60;;;9.80;99.90;;;;;;5009112;28;20045;-71
2023/12/29 09:49:53;;;;;;;17.52;4.35;;;9.90;99.90;;;;;;4980775;28;20129;-71
2023/12/29 09:52:24;;;;;;;20.17;4.30;;;9.90;99.90;;;;;;5031595;28;20445;-71
2023/12/29 09:54:52;;;;;;;20.83;3.65;;;10.00;99.90;;;;;;5000258;28;20054;-71
2023/12/29 09:57:18;;;;;;;24.67;4.28;;;10.00;99.90;;;;;;4996775;28;20049;-71
2023/12/29 09:59:45;;;;;;;23.90;4.57;;;10.00;99.90;;;;;;4983341;28;20342;-71
2023/12/29 10:02:16;;;;;;;22.02;3.67;;;10.00;99.90;;;;;;4986829;28;20931;-71
2023/12/29 10:04:42;;;;;;;19.63;4.75;;;10.00;99.90;;;;;;4999265;28;20224;-71
2023/12/29 10:07:10;;;;;;;15.98;4.13;;;10.00;99.90;;;;;;5020669;28;20204;-71
2023/12/29 10:09:38;;;;;;;21.55;3.58;;;10.00;99.90;;;;;;4995236;28;20045;-71
2023/12/29 10:12:08;;;;;;;23.75;3.72;;;10.00;99.90;;;;;;5005058;28;20047;-71
2023/12/29 10:14:56;;;;;;;20.48;4.10;;;10.00;99.90;;;;;;5001181;28;20038;-71
2023/12/29 10:17:55;;;;;;;19.00;4.63;;;10.10;99.90;;;;;;5013236;28;20052;-71
2023/12/29 10:20:45;;;;;;;21.48;4.00;;;10.20;99.90;;;;;;5001486;28;20041;-71
2023/12/29 10:23:16;;;;;;;21.17;3.75;;;10.20;99.90;;;;;;5000638;28;20140;-71
2023/12/29 10:25:42;;;;;;;18.50;3.95;;;10.20;99.90;;;;;;4993345;28;20177;-71
2023/12/29 10:28:13;;;;;;;24.85;4.30;;;10.30;99.90;;;;;;4996876;28;20042;-71
2023/12/29 10:30:40;;;;;;;16.92;3.50;;;10.20;99.90;;;;;;4995232;28;20046;-71
2023/12/29 10:33:06;;;;;;;17.52;4.05;;;10.20;99.90;;;;;;4993317;28;20049;-71
2023/12/29 10:35:34;;;;;;;21.60;4.28;;;10.20;99.90;;;;;;5000138;28;20387;-71
2023/12/29 10:38:10;;;;;;;21.02;4.10;;;10.30;99.90;;;;;;5029549;28;20670;-71
2023/12/29 10:40:36;;;;;;;17.73;4.13;;;10.20;99.90;;;;;;4988513;28;20046;-71
2023/12/29 10:43:06;;;;;;;15.73;3.35;;;10.20;99.90;;;;;;5026769;28;20034;-71
2023/12/29 10:45:33;;;;;;;19.45;3.50;;;10.20;99.90;;;;;;4998729;28;20069;-71
2023/12/29 10:48:02;;;;;;;16.80;3.25;;;10.20;99.90;;;;;;5002634;28;20515;-71
2023/12/29 10:50:28;;;;;;;13.82;2.58;;;10.20;99.90;;;;;;5022089;28;20042;-71
2023/12/29 10:53:18;;;;;;;16.05;3.38;;;10.10;99.90;;;;;;5039062;28;20069;-71
2023/12/29 10:55:44;;;;;;;18.38;3.28;;;10.00;99.90;;;;;;4995685;28;20042;-71
2023/12/29 10:58:10;;;;;;;15.95;2.80;;;10.00;99.90;;;;;;4987612;28;20038;-70
2023/12/29 11:00:36;;;;;;;15.68;3.35;;;9.90;99.90;;;;;;4983688;28;20450;-71
2023/12/29 11:03:03;;;;;;;13.85;2.85;;;9.60;99.90;;;;;;5004449;28;20075;-71
2023/12/29 11:05:29;;;;;;;13.50;3.03;;;9.50;99.90;;;;;;5001140;28;20042;-71
2023/12/29 11:07:55;;;;;;;15.88;2.80;;;9.50;99.90;;;;;;4985885;28;20050;-71
2023/12/29 11:10:22;;;;;;;13.10;3.10;;;9.50;99.90;;;;;;4999174;28;20042;-70
2023/12/29 11:12:49;;;;;;;16.95;3.20;;;9.50;99.90;;;;;;4979803;28;20042;-71
2023/12/29 11:15:16;;;;;;;8.90;2.50;;;9.50;99.90;;;;;;5012420;28;20041;-71
2023/12/29 11:17:49;;;;;;;13.43;3.00;;;9.90;99.90;;;;;;4982487;28;20049;-71
2023/12/29 11:20:16;;;;;;;16.00;3.58;;;9.90;99.90;;;;;;5003284;28;20099;-71
2023/12/29 11:22:43;;;;;;;14.80;3.10;;;10.20;99.90;;;;;;5013120;28;20112;-71
2023/12/29 11:25:09;;;;;;;11.15;2.60;;;10.20;99.90;;;;;;5032624;28;20418;-71
2023/12/29 11:27:36;;;;;;;12.90;2.72;;;10.20;99.90;;;;;;5034673;28;20053;-71
2023/12/29 11:30:04;;;;;;;14.15;3.17;;;10.20;99.90;;;;;;5002122;28;20041;-71
2023/12/29 11:32:43;;;;;;;14.13;3.40;;;10.20;99.90;;;;;;4993748;28;20041;-71
2023/12/29 11:35:18;;;;;;;14.98;2.80;;;10.20;99.90;;;;;;5030754;28;20392;-71
2023/12/29 11:38:10;;;;;;;10.57;2.30;;;10.30;99.90;;;;;;4980379;28;20050;-71
2023/12/29 11:40:40;;;;;;;11.30;2.40;;;10.20;99.90;;;;;;4995045;28;20052;-71
2023/12/29 11:43:12;;;;;;;9.23;1.77;;;10.20;99.90;;;;;;5013741;28;20038;-71
2023/12/29 11:45:39;;;;;;;13.35;2.70;;;10.20;99.90;;;;;;4997378;28;21172;-71
2023/12/29 11:48:05;;;;;;;12.13;2.00;;;10.20;99.90;;;;;;4986586;28;20030;-71
2023/12/29 11:50:42;;;;;;;7.95;2.20;;;10.20;99.90;;;;;;4999548;28;20104;-71
2023/12/29 11:53:08;;;;;;;4.93;1.95;;;10.30;99.90;;;;;;5003904;28;20060;-71
2023/12/29 11:55:39;;;;;;;10.57;2.08;;;10.20;99.90;;;;;;4987493;28;20057;-71
2023/12/29 11:58:28;;;;;;;12.55;2.17;;;10.10;99.90;;;;;;5002424;28;20075;-71
2023/12/29 12:00:55;;;;;;;10.65;2.22;;;10.00;99.90;;;;;;4995869;28;20333;-71
2023/12/29 12:03:34;;;;;;;6.18;2.00;;;10.00;99.90;;;;;;5023233;28;20512;-71
2023/12/29 12:06:03;;;;;;;9.48;2.13;;;10.00;99.90;;;;;;5001841;28;20056;-71
2023/12/29 12:08:39;;;;;;;9.95;2.13;;;9.90;99.90;;;;;;5002100;28;20636;-71
2023/12/29 12:11:31;;;;;;;15.20;2.78;;;9.90;99.90;;;;;;4983371;28;20421;-71
2023/12/29 12:13:57;;;;;;;9.80;2.40;;;9.80;99.90;;;;;;5002938;28;20400;-71
2023/12/29 12:16:49;;;;;;;5.28;2.13;;;9.80;99.90;;;;;;4997540;28;20056;-71
2023/12/29 12:19:16;;;;;;;10.15;2.00;;;9.80;99.90;;;;;;4995284;28;20200;-71
2023/12/29 12:21:46;;;;;;;11.63;2.42;;;9.90;99.90;;;;;;4996951;28;20555;-71
2023/12/29 12:24:12;;;;;;;10.40;2.40;;;9.90;99.90;;;;;;4998426;28;20037;-71
2023/12/29 12:26:40;;;;;;;9.90;2.95;;;9.90;99.90;;;;;;5006807;28;20364;-71
2023/12/29 12:29:07;;;;;;;11.55;2.50;;;9.90;99.90;;;;;;4982789;28;20042;-71
2023/12/29 12:31:33;;;;;;;11.25;2.85;;;9.80;99.90;;;;;;5001504;28;20112;-71
2023/12/29 12:34:02;;;;;;;9.70;2.17;;;9.70;99.90;;;;;;4997960;28;20046;-71
2023/12/29 12:36:28;;;;;;;11.90;2.83;;;9.60;99.90;;;;;;4984767;28;20134;-71
2023/12/29 12:38:56;;;;;;;8.00;2.15;;;9.60;99.90;;;;;;4997983;28;20289;-71
2023/12/29 12:41:23;;;;;;;11.70;3.35;;;9.50;99.90;;;;;;4990912;28;20045;-71
2023/12/29 12:44:13;;;;;;;15.77;2.92;;;9.50;99.90;;;;;;4981387;28;20501;-71
2023/12/29 12:46:58;;;;;;;11.05;2.35;;;9.50;99.90;;;;;;5004242;28;20041;-71